Time;durP1;ratioP1;P1;durP2;ratioP2;P2;SDS_P1;SDS_P2;PMS_P1;PMS_P2;Temp;Humidity;BMP_temperature;BMP_pressure;BME280_temperature;BME280_humidity;BME280_pressure;Samples;Min_cycle;Max_cycle;Signal;HPM_P1;HPM_P2
2023/04/22 00:00:03;;;;;;;34.43;14.03;;;;;;;;;;5029056;28;20542;-68
2023/04/22 00:02:31;;;;;;;31.00;14.17;;;;;;;;;;5011611;28;20833;-68
2023/04/22 00:04:58;;;;;;;32.53;15.60;;;;;;;;;;4995455;28;20438;-68
2023/04/22 00:07:25;;;;;;;37.20;16.53;;;;;;;;;;5029517;28;20525;-68
2023/04/22 00:09:51;;;;;;;35.17;16.10;;;;;;;;;;5029286;28;21342;-68
2023/04/22 00:12:18;;;;;;;31.20;14.67;;;;;;;;;;5029256;28;20423;-68
2023/04/22 00:14:45;;;;;;;32.30;15.17;;;;;;;;;;5029115;28;20430;-68
2023/04/22 00:17:11;;;;;;;32.07;14.03;;;;;;;;;;5028836;28;20477;-68
2023/04/22 00:19:38;;;;;;;18.93;10.63;;;;;;;;;;5029036;28;20422;-68
2023/04/22 00:22:05;;;;;;;27.90;11.77;;;;;;;;;;5012013;28;20483;-68
2023/04/22 00:24:32;;;;;;;20.30;10.03;;;;;;;;;;5011304;28;20415;-68
2023/04/22 00:26:59;;;;;;;23.43;12.40;;;;;;;;;;5011530;28;20441;-68
2023/04/22 00:29:26;;;;;;;18.83;10.73;;;;;;;;;;5011441;28;20432;-68
2023/04/22 00:31:53;;;;;;;21.43;10.57;;;;;;;;;;5028379;28;20536;-68
2023/04/22 00:34:20;;;;;;;18.30;9.43;;;;;;;;;;5028519;28;20584;-68
2023/04/22 00:36:46;;;;;;;17.97;9.93;;;;;;;;;;5011412;28;20454;-68
2023/04/22 00:39:13;;;;;;;20.97;10.13;;;;;;;;;;5010677;28;20489;-69
2023/04/22 00:41:40;;;;;;;19.53;9.50;;;;;;;;;;5010934;28;20486;-68
2023/04/22 00:44:10;;;;;;;20.30;11.07;;;;;;;;;;5028254;28;20808;-68
2023/04/22 00:46:37;;;;;;;18.20;9.93;;;;;;;;;;5027730;28;20438;-68
2023/04/22 00:49:04;;;;;;;15.43;9.07;;;;;;;;;;5011638;28;20779;-68
2023/04/22 00:51:31;;;;;;;18.43;8.80;;;;;;;;;;5010938;28;20434;-68
2023/04/22 00:54:00;;;;;;;17.03;9.20;;;;;;;;;;5011148;28;20767;-68
2023/04/22 00:56:27;;;;;;;21.07;9.67;;;;;;;;;;5010613;28;20536;-68
2023/04/22 00:58:54;;;;;;;17.50;9.10;;;;;;;;;;5011042;28;20426;-68
2023/04/22 01:01:21;;;;;;;19.87;9.30;;;;;;;;;;5027952;28;20461;-68
2023/04/22 01:03:48;;;;;;;21.27;9.57;;;;;;;;;;5010894;28;20504;-68
2023/04/22 01:06:16;;;;;;;21.03;9.23;;;;;;;;;;5028269;28;20434;-68
2023/04/22 01:08:43;;;;;;;19.47;9.13;;;;;;;;;;4994577;28;20441;-68
2023/04/22 01:11:09;;;;;;;20.70;9.30;;;;;;;;;;5028224;28;20462;-68
2023/04/22 01:13:37;;;;;;;22.50;10.07;;;;;;;;;;5028255;28;20430;-68
2023/04/22 01:16:04;;;;;;;18.87;9.77;;;;;;;;;;5028106;28;20433;-68
2023/04/22 01:18:31;;;;;;;18.07;9.43;;;;;;;;;;4994154;28;20470;-68
2023/04/22 01:20:58;;;;;;;16.77;9.10;;;;;;;;;;5028149;28;20430;-68
2023/04/22 01:23:25;;;;;;;16.67;9.07;;;;;;;;;;5010528;28;20529;-68
2023/04/22 01:25:52;;;;;;;15.47;8.73;;;;;;;;;;5010360;28;20428;-68
2023/04/22 01:28:19;;;;;;;19.00;9.47;;;;;;;;;;4994565;28;20849;-68
2023/04/22 01:30:46;;;;;;;19.20;9.60;;;;;;;;;;5010520;28;20481;-68
2023/04/22 01:33:13;;;;;;;18.27;9.47;;;;;;;;;;5027918;28;20782;-68
2023/04/22 01:35:40;;;;;;;19.10;9.37;;;;;;;;;;4994356;28;20446;-68
2023/04/22 01:38:07;;;;;;;21.10;10.37;;;;;;;;;;5010176;28;20442;-68
2023/04/22 01:40:34;;;;;;;20.93;9.83;;;;;;;;;;5027679;28;20438;-68
2023/04/22 02:15:07;;;;;;;19.50;9.40;;;;;;;;;;5031125;28;20407;-69
2023/04/22 02:17:35;;;;;;;20.23;9.57;;;;;;;;;;5030932;28;20825;-69
2023/04/22 02:20:03;;;;;;;16.57;8.87;;;;;;;;;;5031225;28;20441;-68
2023/04/22 02:22:30;;;;;;;16.27;8.80;;;;;;;;;;5013682;28;20466;-68
2023/04/22 02:24:57;;;;;;;17.67;9.10;;;;;;;;;;5031467;28;20948;-69
2023/04/22 02:27:24;;;;;;;19.63;9.27;;;;;;;;;;5031134;28;20516;-68
2023/04/22 02:29:51;;;;;;;15.87;9.20;;;;;;;;;;5013469;28;20433;-69
2023/04/22 02:32:18;;;;;;;15.10;8.90;;;;;;;;;;5031176;28;20430;-68
2023/04/22 02:34:46;;;;;;;21.33;10.90;;;;;;;;;;5031385;28;20521;-69
2023/04/22 02:37:13;;;;;;;17.60;10.17;;;;;;;;;;5031214;28;20434;-68
2023/04/22 02:39:40;;;;;;;17.27;9.40;;;;;;;;;;5013028;28;20484;-69
2023/04/22 02:42:07;;;;;;;18.03;9.83;;;;;;;;;;5012934;28;20508;-69
2023/04/22 02:44:34;;;;;;;16.43;9.63;;;;;;;;;;5031021;28;20531;-69
2023/04/22 02:47:02;;;;;;;19.80;9.10;;;;;;;;;;5012814;28;20961;-68
2023/04/22 02:49:29;;;;;;;17.03;9.97;;;;;;;;;;5013076;28;20953;-68
2023/04/22 02:51:56;;;;;;;16.37;9.00;;;;;;;;;;5013488;28;20938;-68
2023/04/22 02:54:22;;;;;;;15.77;9.13;;;;;;;;;;4996950;28;20434;-68
2023/04/22 02:56:49;;;;;;;15.93;9.13;;;;;;;;;;4996263;28;20968;-68
2023/04/22 02:59:16;;;;;;;18.40;9.17;;;;;;;;;;5013024;28;20454;-68
2023/04/22 03:01:43;;;;;;;14.47;8.93;;;;;;;;;;5012391;28;20833;-69
2023/04/22 03:04:17;;;;;;;15.73;8.57;;;;;;;;;;5012887;28;20838;-68
2023/04/22 03:06:44;;;;;;;17.73;8.47;;;;;;;;;;5030682;28;20442;-68
2023/04/22 03:09:10;;;;;;;19.07;8.67;;;;;;;;;;5011636;28;20450;-68
2023/04/22 03:11:37;;;;;;;15.03;8.00;;;;;;;;;;5012313;28;20537;-68
2023/04/22 03:14:05;;;;;;;16.70;8.27;;;;;;;;;;5012753;28;20443;-68
2023/04/22 03:16:32;;;;;;;19.23;8.50;;;;;;;;;;5011971;28;20446;-69
2023/04/22 03:19:02;;;;;;;16.27;9.03;;;;;;;;;;5012339;28;20470;-68
2023/04/22 03:21:31;;;;;;;14.27;8.70;;;;;;;;;;5012186;28;20450;-68
2023/04/22 03:23:58;;;;;;;18.23;8.70;;;;;;;;;;5012559;28;20553;-69
2023/04/22 03:26:28;;;;;;;17.07;8.43;;;;;;;;;;5012337;28;20442;-68
2023/04/22 03:28:57;;;;;;;13.83;8.03;;;;;;;;;;5012510;28;20528;-68
2023/04/22 03:31:24;;;;;;;14.50;8.10;;;;;;;;;;5012047;28;20442;-68
2023/04/22 03:33:51;;;;;;;17.03;8.97;;;;;;;;;;5029901;28;20426;-68
2023/04/22 03:36:26;;;;;;;18.20;7.70;;;;;;;;;;5029697;28;20433;-69
2023/04/22 03:38:53;;;;;;;15.43;7.87;;;;;;;;;;5012167;28;20455;-68
2023/04/22 03:41:25;;;;;;;16.53;7.63;;;;;;;;;;5011714;28;20448;-68
2023/04/22 03:43:51;;;;;;;14.17;7.93;;;;;;;;;;5029705;28;20462;-68
2023/04/22 03:46:19;;;;;;;15.17;8.73;;;;;;;;;;5011916;28;20445;-68
2023/04/22 03:48:57;;;;;;;15.53;7.93;;;;;;;;;;5012346;28;20778;-68
2023/04/22 03:51:27;;;;;;;14.97;8.00;;;;;;;;;;5011747;28;20496;-68
2023/04/22 03:53:56;;;;;;;13.93;7.60;;;;;;;;;;5012099;28;20484;-69
2023/04/22 03:56:25;;;;;;;13.33;8.27;;;;;;;;;;5011824;28;20442;-68
2023/04/22 03:58:56;;;;;;;12.27;7.93;;;;;;;;;;5011848;28;20453;-68
2023/04/22 04:01:24;;;;;;;14.70;7.93;;;;;;;;;;5028986;28;20461;-68
2023/04/22 04:03:54;;;;;;;16.30;8.30;;;;;;;;;;4996459;28;20988;-69
2023/04/22 04:06:28;;;;;;;15.40;7.77;;;;;;;;;;5011418;28;20460;-69
2023/04/22 04:08:57;;;;;;;12.53;7.43;;;;;;;;;;5029257;28;20438;-69
2023/04/22 04:11:24;;;;;;;15.20;7.90;;;;;;;;;;5011438;28;20559;-68
2023/04/22 04:13:52;;;;;;;13.60;7.33;;;;;;;;;;5011184;28;20492;-69
2023/04/22 04:16:24;;;;;;;12.63;7.67;;;;;;;;;;5011214;28;20446;-68
2023/04/22 04:18:58;;;;;;;17.33;8.27;;;;;;;;;;5011604;28;20832;-68
2023/04/22 04:21:26;;;;;;;13.20;7.20;;;;;;;;;;5011522;28;20496;-69
2023/04/22 04:23:54;;;;;;;14.73;8.10;;;;;;;;;;5011141;28;20771;-68
2023/04/22 04:26:28;;;;;;;13.03;7.40;;;;;;;;;;5011170;28;20941;-69
2023/04/22 04:29:05;;;;;;;11.07;7.40;;;;;;;;;;5011234;28;21012;-68
2023/04/22 04:31:32;;;;;;;12.83;6.97;;;;;;;;;;5011019;28;20442;-69
2023/04/22 04:33:59;;;;;;;11.53;6.90;;;;;;;;;;5011436;28;20206;-68
2023/04/22 04:36:28;;;;;;;13.03;7.03;;;;;;;;;;5011006;28;20219;-69
2023/04/22 04:39:04;;;;;;;15.80;8.27;;;;;;;;;;5010966;28;20206;-69
2023/04/22 04:41:32;;;;;;;12.33;7.10;;;;;;;;;;5028523;28;20246;-69
2023/04/22 04:43:59;;;;;;;16.27;7.90;;;;;;;;;;5010920;28;21012;-68
2023/04/22 04:46:31;;;;;;;15.73;8.10;;;;;;;;;;5010580;28;20962;-69
2023/04/22 04:48:58;;;;;;;17.10;8.60;;;;;;;;;;5011240;28;20199;-69
2023/04/22 04:51:28;;;;;;;13.33;7.87;;;;;;;;;;5010645;28;20207;-68
2023/04/22 04:53:58;;;;;;;16.60;8.63;;;;;;;;;;5010752;28;20231;-69
2023/04/22 04:56:29;;;;;;;15.67;8.30;;;;;;;;;;5010671;28;20251;-69
2023/04/22 04:58:56;;;;;;;17.73;8.60;;;;;;;;;;5010761;28;20199;-69
2023/04/22 05:01:25;;;;;;;17.03;7.97;;;;;;;;;;5010460;28;20532;-69
2023/04/22 05:03:55;;;;;;;14.53;8.60;;;;;;;;;;5010610;28;20241;-69
2023/04/22 05:06:23;;;;;;;13.70;7.73;;;;;;;;;;5010352;28;20203;-69
2023/04/22 05:08:55;;;;;;;17.17;8.50;;;;;;;;;;5010289;28;20658;-69
2023/04/22 05:11:22;;;;;;;16.30;7.90;;;;;;;;;;5010584;28;20544;-69
2023/04/22 05:13:50;;;;;;;13.17;7.93;;;;;;;;;;5028005;28;20547;-68
2023/04/22 05:16:23;;;;;;;16.40;7.70;;;;;;;;;;5009982;28;20195;-68
2023/04/22 05:18:50;;;;;;;16.13;8.20;;;;;;;;;;5028204;28;20223;-68
2023/04/22 05:21:17;;;;;;;11.97;7.03;;;;;;;;;;5028241;28;20567;-68
2023/04/22 05:23:44;;;;;;;12.53;6.57;;;;;;;;;;5010381;28;20304;-68
2023/04/22 05:26:12;;;;;;;13.53;6.80;;;;;;;;;;5010219;28;20227;-66
2023/04/22 05:28:41;;;;;;;13.10;6.77;;;;;;;;;;4993919;28;20199;-68
2023/04/22 05:31:08;;;;;;;12.87;6.37;;;;;;;;;;5027549;28;20678;-67
2023/04/22 05:33:36;;;;;;;10.70;5.63;;;;;;;;;;5010024;28;20254;-67
2023/04/22 05:36:04;;;;;;;11.37;5.67;;;;;;;;;;5010320;28;20195;-67
2023/04/22 05:38:30;;;;;;;11.40;6.10;;;;;;;;;;5027816;28;20234;-67
2023/04/22 05:40:58;;;;;;;12.27;6.50;;;;;;;;;;5010344;28;20326;-67
2023/04/22 05:43:25;;;;;;;13.90;7.83;;;;;;;;;;5010088;28;20219;-68
2023/04/22 05:46:02;;;;;;;14.83;7.10;;;;;;;;;;5010271;28;20294;-67
2023/04/22 05:48:31;;;;;;;13.80;5.90;;;;;;;;;;5009964;28;20699;-67
2023/04/22 05:51:02;;;;;;;9.50;5.83;;;;;;;;;;5010268;28;20204;-67
2023/04/22 05:53:29;;;;;;;9.37;5.70;;;;;;;;;;5009905;28;20207;-67
2023/04/22 05:55:58;;;;;;;10.77;5.50;;;;;;;;;;5010082;28;20199;-67
2023/04/22 05:58:25;;;;;;;17.60;8.87;;;;;;;;;;5010220;28;20192;-67
2023/04/22 06:00:53;;;;;;;18.17;8.60;;;;;;;;;;5010155;28;20207;-68
2023/04/22 06:03:49;;;;;;;19.60;8.90;;;;;;;;;;5014591;28;20237;-67
2023/04/22 06:06:16;;;;;;;15.43;8.83;;;;;;;;;;5009854;28;20196;-68
2023/04/22 06:08:45;;;;;;;17.50;9.23;;;;;;;;;;5010185;28;20269;-67
2023/04/22 06:11:13;;;;;;;20.30;9.10;;;;;;;;;;5010137;28;20192;-68
2023/04/22 06:13:39;;;;;;;16.30;7.93;;;;;;;;;;5027390;28;20191;-68
2023/04/22 06:16:07;;;;;;;10.30;5.83;;;;;;;;;;5010133;28;20203;-68
2023/04/22 06:18:39;;;;;;;9.80;4.07;;;;;;;;;;5010622;28;20711;-69
2023/04/22 06:21:10;;;;;;;13.23;6.43;;;;;;;;;;5009860;28;20195;-67
2023/04/22 06:23:38;;;;;;;13.87;6.00;;;;;;;;;;4993767;28;20255;-67
2023/04/22 06:26:06;;;;;;;6.87;3.33;;;;;;;;;;5009641;28;21013;-67
2023/04/22 06:28:35;;;;;;;5.87;2.50;;;;;;;;;;4993645;28;20207;-68
2023/04/22 06:31:07;;;;;;;4.97;2.53;;;;;;;;;;5009986;28;20200;-68
2023/04/22 06:33:35;;;;;;;4.80;2.60;;;;;;;;;;5009547;28;20287;-67
2023/04/22 06:36:03;;;;;;;4.00;2.20;;;;;;;;;;5027587;28;20187;-67
2023/04/22 06:38:31;;;;;;;5.67;2.40;;;;;;;;;;5009123;28;20200;-67
2023/04/22 06:41:17;;;;;;;4.53;2.60;;;;;;;;;;5027179;28;20234;-67
2023/04/22 06:43:48;;;;;;;6.17;2.93;;;;;;;;;;5010877;28;20231;-69
2023/04/22 06:46:33;;;;;;;4.90;3.13;;;;;;;;;;5030589;28;20202;-68
2023/04/22 06:49:19;;;;;;;8.03;2.90;;;;;;;;;;5015905;28;20362;-69
2023/04/22 06:51:58;;;;;;;5.40;2.50;;;;;;;;;;5031559;28;20202;-70
2023/04/22 06:54:25;;;;;;;3.47;1.37;;;;;;;;;;5012655;28;20283;-69
2023/04/22 06:56:54;;;;;;;3.43;1.90;;;;;;;;;;5030571;28;20245;-68
2023/04/22 06:59:22;;;;;;;2.07;1.13;;;;;;;;;;5012578;28;20233;-69
2023/04/22 07:01:49;;;;;;;3.13;2.20;;;;;;;;;;5012733;28;20246;-68
2023/04/22 07:04:16;;;;;;;3.77;1.40;;;;;;;;;;4996486;28;20319;-69
2023/04/22 07:06:43;;;;;;;3.23;1.07;;;;;;;;;;5013003;28;20230;-69
2023/04/22 07:09:11;;;;;;;1.13;0.90;;;;;;;;;;4996158;28;20199;-69
2023/04/22 07:11:37;;;;;;;2.00;1.50;;;;;;;;;;5012813;28;20205;-68
2023/04/22 07:14:11;;;;;;;3.40;2.13;;;;;;;;;;5012416;28;20203;-69
2023/04/22 07:16:37;;;;;;;4.40;2.20;;;;;;;;;;5012484;28;20618;-68
2023/04/22 07:19:07;;;;;;;2.67;2.03;;;;;;;;;;5012679;28;20215;-68
2023/04/22 07:21:34;;;;;;;5.87;2.00;;;;;;;;;;5030070;28;20258;-68
2023/04/22 07:24:00;;;;;;;2.70;1.60;;;;;;;;;;5030272;28;20226;-68
2023/04/22 07:26:27;;;;;;;3.83;1.60;;;;;;;;;;5030139;28;20222;-68
2023/04/22 07:28:54;;;;;;;1.93;1.00;;;;;;;;;;5012602;28;20179;-68
2023/04/22 07:31:21;;;;;;;2.13;1.10;;;;;;;;;;5029934;28;20192;-68
2023/04/22 07:33:48;;;;;;;2.27;0.90;;;;;;;;;;5030005;28;20208;-68
2023/04/22 07:36:15;;;;;;;3.23;1.80;;;;;;;;;;5029758;28;20192;-68
2023/04/22 07:38:41;;;;;;;4.53;1.90;;;;;;;;;;5012109;28;20199;-68
2023/04/22 07:41:08;;;;;;;4.93;1.97;;;;;;;;;;5029394;28;20184;-68
2023/04/22 07:43:35;;;;;;;3.27;1.93;;;;;;;;;;5012403;28;20242;-68
2023/04/22 07:46:02;;;;;;;3.50;1.70;;;;;;;;;;5029872;28;20188;-68
2023/04/22 07:48:29;;;;;;;3.43;1.70;;;;;;;;;;5029601;28;20214;-68
2023/04/22 07:50:56;;;;;;;2.43;1.50;;;;;;;;;;5012211;28;20184;-68
2023/04/22 07:53:22;;;;;;;4.40;1.40;;;;;;;;;;5029546;28;20179;-68
2023/04/22 07:55:49;;;;;;;2.70;1.03;;;;;;;;;;5028711;28;20257;-68
2023/04/22 07:58:16;;;;;;;2.43;1.10;;;;;;;;;;5012189;28;20187;-68
2023/04/22 08:00:42;;;;;;;3.83;1.50;;;;;;;;;;5012212;28;20305;-68
2023/04/22 08:03:09;;;;;;;2.93;1.30;;;;;;;;;;5029083;28;20225;-67
2023/04/22 08:05:36;;;;;;;2.83;1.50;;;;;;;;;;5029388;28;20199;-68
2023/04/22 08:08:03;;;;;;;3.03;1.47;;;;;;;;;;5029710;28;20190;-68
2023/04/22 08:10:30;;;;;;;2.87;1.10;;;;;;;;;;5029080;28;20214;-68
2023/04/22 08:12:56;;;;;;;1.80;1.20;;;;;;;;;;5012261;28;20194;-67
2023/04/22 08:15:24;;;;;;;2.37;0.87;;;;;;;;;;5028835;28;20212;-68
2023/04/22 08:17:51;;;;;;;2.07;1.00;;;;;;;;;;5028916;28;20255;-67
2023/04/22 08:20:17;;;;;;;1.67;1.17;;;;;;;;;;5029060;28;20219;-68
2023/04/22 08:22:44;;;;;;;4.57;1.20;;;;;;;;;;5029388;28;20190;-68
2023/04/22 08:25:11;;;;;;;5.10;1.10;;;;;;;;;;5029122;28;20204;-68
2023/04/22 08:27:37;;;;;;;2.13;1.27;;;;;;;;;;5029107;28;20183;-67
2023/04/22 08:30:05;;;;;;;1.87;1.00;;;;;;;;;;5028688;28;20197;-68
2023/04/22 08:32:32;;;;;;;3.40;1.17;;;;;;;;;;5028952;28;20179;-67
2023/04/22 08:34:59;;;;;;;3.73;1.20;;;;;;;;;;5028953;28;20195;-67
2023/04/22 08:37:30;;;;;;;3.73;1.30;;;;;;;;;;5012124;28;20287;-67
2023/04/22 08:39:57;;;;;;;3.57;1.20;;;;;;;;;;5011571;28;20184;-67
2023/04/22 08:42:24;;;;;;;4.30;1.50;;;;;;;;;;5028806;28;20180;-68
2023/04/22 08:44:51;;;;;;;2.43;1.40;;;;;;;;;;5011028;28;20219;-67
2023/04/22 08:47:18;;;;;;;2.83;1.17;;;;;;;;;;5028634;28;20219;-68
2023/04/22 08:49:44;;;;;;;3.67;1.20;;;;;;;;;;5011071;28;20191;-67
2023/04/22 08:52:14;;;;;;;2.57;0.90;;;;;;;;;;5028762;28;20188;-67
2023/04/22 08:54:40;;;;;;;1.60;0.90;;;;;;;;;;5011385;28;20215;-67
2023/04/22 08:57:08;;;;;;;2.97;1.00;;;;;;;;;;5028267;28;20278;-67
2023/04/22 08:59:35;;;;;;;2.47;1.00;;;;;;;;;;5028326;28;20187;-68
2023/04/22 09:02:01;;;;;;;5.70;1.10;;;;;;;;;;5028271;28;20183;-68
2023/04/22 09:04:28;;;;;;;1.00;0.70;;;;;;;;;;5028265;28;20234;-68
2023/04/22 09:06:56;;;;;;;2.77;1.00;;;;;;;;;;5027841;28;20191;-68
2023/04/22 09:09:23;;;;;;;1.80;0.90;;;;;;;;;;5028643;28;20193;-68
2023/04/22 09:11:50;;;;;;;1.53;0.80;;;;;;;;;;5010446;28;20284;-68
2023/04/22 09:14:17;;;;;;;1.53;0.77;;;;;;;;;;5028328;28;20187;-68
2023/04/22 09:16:50;;;;;;;1.87;0.60;;;;;;;;;;5028034;28;20183;-68
2023/04/22 09:19:18;;;;;;;1.33;0.80;;;;;;;;;;5010578;28;20877;-68
2023/04/22 09:21:44;;;;;;;3.50;1.20;;;;;;;;;;5010921;28;20290;-68
2023/04/22 09:24:15;;;;;;;3.40;1.40;;;;;;;;;;5010919;28;20301;-69
2023/04/22 09:26:42;;;;;;;2.67;1.50;;;;;;;;;;5028268;28;20302;-68
2023/04/22 09:29:12;;;;;;;3.10;1.60;;;;;;;;;;5028012;28;20558;-68
2023/04/22 09:31:39;;;;;;;2.30;1.47;;;;;;;;;;5028247;28;20191;-68
2023/04/22 09:34:06;;;;;;;4.00;1.53;;;;;;;;;;5028306;28;20193;-68
2023/04/22 09:36:34;;;;;;;2.73;1.50;;;;;;;;;;5010313;28;20199;-68
2023/04/22 09:39:05;;;;;;;1.83;1.10;;;;;;;;;;5010515;28;20201;-69
2023/04/22 09:41:33;;;;;;;2.23;1.37;;;;;;;;;;5010497;28;20558;-69
2023/04/22 09:44:01;;;;;;;2.00;1.20;;;;;;;;;;5010290;28;20262;-69
2023/04/22 09:46:28;;;;;;;4.30;1.47;;;;;;;;;;5027700;28;20294;-68
2023/04/22 09:48:55;;;;;;;2.37;1.20;;;;;;;;;;5010640;28;20191;-68
2023/04/22 09:51:22;;;;;;;2.57;1.20;;;;;;;;;;5029041;28;20295;-69
2023/04/22 09:54:05;;;;;;;1.93;1.10;;;;;;;;;;5011576;28;20659;-69
2023/04/22 09:56:46;;;;;;;3.43;1.27;;;;;;;;;;5012127;28;20195;-69
2023/04/22 09:59:14;;;;;;;1.60;0.87;;;;;;;;;;5029039;28;20180;-70
2023/04/22 10:01:41;;;;;;;2.43;1.07;;;;;;;;;;5011483;28;20194;-69
2023/04/22 10:04:13;;;;;;;1.47;0.87;;;;;;;;;;5029060;28;20214;-69
2023/04/22 10:06:41;;;;;;;2.00;0.93;;;;;;;;;;5029189;28;20179;-69
2023/04/22 10:09:08;;;;;;;2.73;0.83;;;;;;;;;;5028994;28;20211;-69
2023/04/22 10:11:35;;;;;;;2.90;1.30;;;;;;;;;;5011160;28;20196;-69
2023/04/22 10:14:02;;;;;;;2.07;0.90;;;;;;;;;;5011407;28;20714;-69
2023/04/22 10:16:30;;;;;;;1.97;1.13;;;;;;;;;;5028625;28;20191;-69
2023/04/22 10:18:57;;;;;;;1.73;1.00;;;;;;;;;;5014911;28;20225;-70
2023/04/22 10:21:25;;;;;;;2.97;1.03;;;;;;;;;;5015270;28;20195;-69
2023/04/22 10:23:52;;;;;;;1.90;1.00;;;;;;;;;;5014998;28;20242;-70
2023/04/22 10:26:41;;;;;;;2.60;1.20;;;;;;;;;;5032702;28;20196;-69
2023/04/22 10:29:09;;;;;;;1.87;0.90;;;;;;;;;;5032474;28;20183;-69
2023/04/22 10:31:36;;;;;;;2.00;0.90;;;;;;;;;;5015109;28;20278;-69
2023/04/22 10:34:13;;;;;;;2.00;1.10;;;;;;;;;;5015206;28;20608;-69
2023/04/22 10:36:53;;;;;;;1.47;1.10;;;;;;;;;;5014940;28;20189;-69
2023/04/22 10:39:20;;;;;;;2.53;0.87;;;;;;;;;;5014720;28;20195;-69
2023/04/22 10:41:51;;;;;;;3.80;1.20;;;;;;;;;;5032045;28;20266;-69
2023/04/22 10:44:18;;;;;;;2.07;1.00;;;;;;;;;;5032489;28;20270;-69
2023/04/22 10:46:51;;;;;;;2.60;1.00;;;;;;;;;;5032217;28;20434;-69
2023/04/22 10:49:20;;;;;;;2.17;0.80;;;;;;;;;;5032306;28;20598;-70
2023/04/22 10:51:50;;;;;;;2.10;0.93;;;;;;;;;;4998357;28;20184;-70
2023/04/22 10:57:03;;;;;;;1.33;0.70;;;;;;;;;;5032097;28;20187;-70
2023/04/22 10:59:31;;;;;;;2.27;0.80;;;;;;;;;;5014279;28;20294;-69
2023/04/22 11:02:07;;;;;;;1.17;0.90;;;;;;;;;;5031881;28;20191;-69
2023/04/22 11:04:33;;;;;;;2.20;0.97;;;;;;;;;;5014238;28;20207;-69
2023/04/22 11:07:19;;;;;;;1.10;0.70;;;;;;;;;;4997973;28;20241;-69
2023/04/22 11:09:48;;;;;;;2.67;1.10;;;;;;;;;;5031843;28;20792;-70
2023/04/22 11:12:34;;;;;;;1.03;0.90;;;;;;;;;;5014282;28;20658;-69
2023/04/22 11:15:04;;;;;;;1.90;0.83;;;;;;;;;;5031786;28;20195;-69
2023/04/22 11:17:30;;;;;;;1.30;0.80;;;;;;;;;;5031579;28;20223;-69
2023/04/22 11:19:57;;;;;;;1.67;0.90;;;;;;;;;;4998061;28;20211;-70
2023/04/22 11:22:24;;;;;;;1.80;0.70;;;;;;;;;;5031700;28;20187;-69
2023/04/22 11:24:54;;;;;;;1.37;0.77;;;;;;;;;;5014115;28;20218;-69
2023/04/22 11:27:25;;;;;;;1.43;0.73;;;;;;;;;;5031609;28;20246;-69
2023/04/22 11:29:59;;;;;;;2.70;1.00;;;;;;;;;;5013127;28;20203;-69
2023/04/22 11:32:27;;;;;;;1.27;0.70;;;;;;;;;;5013557;28;20195;-69
2023/04/22 11:34:55;;;;;;;2.13;1.03;;;;;;;;;;5031266;28;20192;-69
2023/04/22 11:37:22;;;;;;;1.57;0.80;;;;;;;;;;5031482;28;20219;-69
2023/04/22 11:39:51;;;;;;;1.77;0.80;;;;;;;;;;5031314;28;20191;-69
2023/04/22 11:42:38;;;;;;;2.70;0.90;;;;;;;;;;5031305;28;20291;-69
2023/04/22 11:45:05;;;;;;;3.00;1.00;;;;;;;;;;5031130;28;20219;-69
2023/04/22 11:47:33;;;;;;;1.97;0.87;;;;;;;;;;5013565;28;20342;-69
2023/04/22 11:50:03;;;;;;;2.20;0.87;;;;;;;;;;5030961;28;20218;-69
2023/04/22 11:52:49;;;;;;;2.83;0.90;;;;;;;;;;5013967;28;20591;-69
2023/04/22 11:55:21;;;;;;;2.20;0.80;;;;;;;;;;5013331;28;20659;-69
2023/04/22 11:57:52;;;;;;;2.13;0.80;;;;;;;;;;5013206;28;20198;-69
2023/04/22 12:00:19;;;;;;;1.50;1.00;;;;;;;;;;4996918;28;20215;-70
2023/04/22 12:03:09;;;;;;;1.97;0.70;;;;;;;;;;5030513;28;20195;-69
2023/04/22 12:05:41;;;;;;;3.73;0.80;;;;;;;;;;5020987;28;20710;-69
2023/04/22 12:08:09;;;;;;;2.10;1.10;;;;;;;;;;5030622;28;20183;-69
2023/04/22 12:10:46;;;;;;;1.97;0.80;;;;;;;;;;5030692;28;20184;-69
2023/04/22 12:13:17;;;;;;;1.33;0.70;;;;;;;;;;5030621;28;20195;-69
2023/04/22 12:15:44;;;;;;;0.97;0.80;;;;;;;;;;5030626;28;20179;-69
2023/04/22 12:18:11;;;;;;;2.00;1.00;;;;;;;;;;5012918;28;20231;-69
2023/04/22 12:20:38;;;;;;;1.13;0.90;;;;;;;;;;5030615;28;20195;-69
2023/04/22 12:23:10;;;;;;;1.70;1.10;;;;;;;;;;5030490;28;20214;-69
2023/04/22 12:25:37;;;;;;;2.50;0.90;;;;;;;;;;5012697;28;20274;-69
2023/04/22 12:28:03;;;;;;;0.97;0.60;;;;;;;;;;5030453;28;20191;-69
2023/04/22 12:30:32;;;;;;;2.77;1.37;;;;;;;;;;5030243;28;20199;-69
2023/04/22 12:32:58;;;;;;;2.27;1.20;;;;;;;;;;5030143;28;20191;-69
2023/04/22 12:35:25;;;;;;;3.27;1.73;;;;;;;;;;5012409;28;20294;-69
2023/04/22 12:37:52;;;;;;;1.60;1.07;;;;;;;;;;5029724;28;20199;-69
2023/04/22 12:40:19;;;;;;;3.23;1.17;;;;;;;;;;5030173;28;20528;-69
2023/04/22 12:42:46;;;;;;;5.20;2.60;;;;;;;;;;5029922;28;20657;-69
2023/04/22 12:45:13;;;;;;;2.07;0.73;;;;;;;;;;5029892;28;20619;-69
2023/04/22 12:47:40;;;;;;;3.77;0.97;;;;;;;;;;5029315;28;20214;-69
2023/04/22 12:50:07;;;;;;;3.93;1.40;;;;;;;;;;5012244;28;20558;-69
2023/04/22 12:52:34;;;;;;;4.37;2.37;;;;;;;;;;5029651;28;20241;-70
2023/04/22 12:55:01;;;;;;;2.20;1.50;;;;;;;;;;5030055;28;20544;-69
2023/04/22 12:57:27;;;;;;;3.50;1.30;;;;;;;;;;5030022;28;20198;-69
2023/04/22 12:59:54;;;;;;;4.10;2.40;;;;;;;;;;5029608;28;20353;-69
2023/04/22 13:02:21;;;;;;;2.50;1.03;;;;;;;;;;5029499;28;20558;-69
2023/04/22 13:04:48;;;;;;;11.70;7.03;;;;;;;;;;5011909;28;20207;-69
2023/04/22 13:07:16;;;;;;;3.83;1.73;;;;;;;;;;5029538;28;20192;-69
2023/04/22 13:09:49;;;;;;;2.40;1.00;;;;;;;;;;5012695;28;20199;-69
2023/04/22 13:12:19;;;;;;;2.40;0.77;;;;;;;;;;5029729;28;20183;-69
2023/04/22 13:14:46;;;;;;;2.57;1.10;;;;;;;;;;5029267;28;20187;-69
2023/04/22 13:17:12;;;;;;;1.20;0.80;;;;;;;;;;5029443;28;20229;-69
2023/04/22 13:19:39;;;;;;;2.70;0.90;;;;;;;;;;5029461;28;20195;-69
2023/04/22 13:22:07;;;;;;;3.07;1.10;;;;;;;;;;5029547;28;20217;-69
2023/04/22 13:24:33;;;;;;;2.17;0.90;;;;;;;;;;5029251;28;20195;-70
2023/04/22 13:27:01;;;;;;;1.43;1.00;;;;;;;;;;5011816;28;20658;-69
2023/04/22 13:29:28;;;;;;;3.03;1.03;;;;;;;;;;5029287;28;20275;-69
2023/04/22 13:31:54;;;;;;;4.80;1.97;;;;;;;;;;5029208;28;20563;-69
2023/04/22 13:34:21;;;;;;;2.70;1.27;;;;;;;;;;4995379;28;20191;-69
2023/04/22 13:36:48;;;;;;;2.60;1.00;;;;;;;;;;5029325;28;20270;-69
2023/04/22 13:39:15;;;;;;;1.83;1.07;;;;;;;;;;5029171;28;20214;-70
2023/04/22 13:41:42;;;;;;;2.10;1.43;;;;;;;;;;5029244;28;20191;-69
2023/04/22 13:44:09;;;;;;;1.93;1.07;;;;;;;;;;5028939;28;20194;-69
2023/04/22 13:46:36;;;;;;;4.27;2.00;;;;;;;;;;5029144;28;20230;-70
2023/04/22 13:49:05;;;;;;;2.73;1.60;;;;;;;;;;5029187;28;20610;-69
2023/04/22 13:51:31;;;;;;;4.63;2.20;;;;;;;;;;5029105;28;20199;-70
2023/04/22 13:53:59;;;;;;;2.33;1.53;;;;;;;;;;5032821;28;20420;-69
2023/04/22 13:56:26;;;;;;;3.80;2.23;;;;;;;;;;5033222;28;20653;-69
2023/04/22 13:58:52;;;;;;;5.53;2.03;;;;;;;;;;5033119;28;20218;-70
2023/04/22 14:01:19;;;;;;;1.87;1.30;;;;;;;;;;5015559;28;20590;-70
2023/04/22 14:03:49;;;;;;;4.80;2.20;;;;;;;;;;5032451;28;20203;-70
2023/04/22 14:06:16;;;;;;;4.37;1.80;;;;;;;;;;5015474;28;20246;-69
2023/04/22 14:08:42;;;;;;;3.90;1.93;;;;;;;;;;5032886;28;20282;-70
2023/04/22 14:11:09;;;;;;;2.60;1.40;;;;;;;;;;5032858;28;20544;-69
2023/04/22 14:13:36;;;;;;;3.00;1.47;;;;;;;;;;5015135;28;20266;-70
2023/04/22 14:16:06;;;;;;;2.87;1.20;;;;;;;;;;5032872;28;20602;-70
2023/04/22 14:18:35;;;;;;;3.50;1.47;;;;;;;;;;5015675;28;20223;-70
2023/04/22 14:21:06;;;;;;;13.27;4.00;;;;;;;;;;5032770;28;20183;-70
2023/04/22 14:23:33;;;;;;;3.57;1.93;;;;;;;;;;5032653;28;20195;-70
2023/04/22 14:26:00;;;;;;;3.47;1.13;;;;;;;;;;5032641;28;20270;-70
2023/04/22 14:28:26;;;;;;;2.40;1.30;;;;;;;;;;5014347;28;20206;-71
2023/04/22 14:30:53;;;;;;;5.57;1.83;;;;;;;;;;5033124;28;20249;-70
2023/04/22 14:33:23;;;;;;;2.17;0.73;;;;;;;;;;5032490;28;20550;-70
2023/04/22 14:35:50;;;;;;;1.43;1.03;;;;;;;;;;5014715;28;20187;-70
2023/04/22 14:38:17;;;;;;;2.30;1.30;;;;;;;;;;5014591;28;20195;-70
2023/04/22 14:40:44;;;;;;;2.47;1.20;;;;;;;;;;4998460;28;20184;-70
2023/04/22 14:43:11;;;;;;;3.73;1.23;;;;;;;;;;5032763;28;20673;-69
2023/04/22 14:45:38;;;;;;;2.37;1.07;;;;;;;;;;5031980;28;20223;-70
2023/04/22 14:48:05;;;;;;;2.70;1.20;;;;;;;;;;5014707;28;20520;-69
2023/04/22 14:50:33;;;;;;;2.00;0.90;;;;;;;;;;5032089;28;20203;-70
2023/04/22 14:52:59;;;;;;;3.00;1.53;;;;;;;;;;5032219;28;20271;-70
2023/04/22 14:55:26;;;;;;;2.67;1.27;;;;;;;;;;5031826;28;20187;-70
2023/04/22 14:57:55;;;;;;;5.17;1.80;;;;;;;;;;5014755;28;20210;-70
2023/04/22 15:00:22;;;;;;;4.57;1.10;;;;;;;;;;5031804;28;20195;-70
2023/04/22 15:02:49;;;;;;;7.10;2.30;;;;;;;;;;5014454;28;20183;-69
2023/04/22 15:05:16;;;;;;;2.37;1.00;;;;;;;;;;5013233;28;20285;-69
2023/04/22 15:07:43;;;;;;;3.33;1.40;;;;;;;;;;5031757;28;20190;-69
2023/04/22 15:10:10;;;;;;;5.00;1.33;;;;;;;;;;5032236;28;20193;-69
2023/04/22 15:12:37;;;;;;;2.30;0.73;;;;;;;;;;5013999;28;20196;-69
2023/04/22 15:15:03;;;;;;;3.23;1.10;;;;;;;;;;5031856;28;20206;-69
2023/04/22 15:17:30;;;;;;;2.70;1.00;;;;;;;;;;5031679;28;20568;-69
2023/04/22 15:19:57;;;;;;;2.80;1.03;;;;;;;;;;5031530;28;20187;-69